sensor_id;sensor_type;location;lat;lon;timestamp;P1;durP1;ratioP1;P2;durP2;ratioP2
78871;SDS011;68247;43.514;1.502;2023-03-05T00:01:31;47.58;;;22.73;;
78871;SDS011;68247;43.514;1.502;2023-03-05T00:03:57;46.67;;;22.70;;
78871;SDS011;68247;43.514;1.502;2023-03-05T00:06:23;39.40;;;18.67;;
78871;SDS011;68247;43.514;1.502;2023-03-05T00:08:50;47.40;;;23.77;;
78871;SDS011;68247;43.514;1.502;2023-03-05T00:11:17;41.58;;;20.35;;
78871;SDS011;68247;43.514;1.502;2023-03-05T00:13:43;46.27;;;21.43;;
78871;SDS011;68247;43.514;1.502;2023-03-05T00:16:09;43.30;;;20.60;;
78871;SDS011;68247;43.514;1.502;2023-03-05T00:18:37;43.73;;;20.03;;
78871;SDS011;68247;43.514;1.502;2023-03-05T00:21:03;45.75;;;22.25;;
78871;SDS011;68247;43.514;1.502;2023-03-05T00:23:29;46.30;;;20.85;;
78871;SDS011;68247;43.514;1.502;2023-03-05T00:25:55;46.20;;;22.47;;
78871;SDS011;68247;43.514;1.502;2023-03-05T00:28:20;43.10;;;21.17;;
78871;SDS011;68247;43.514;1.502;2023-03-05T00:30:46;46.93;;;22.23;;
78871;SDS011;68247;43.514;1.502;2023-03-05T00:33:11;44.43;;;22.17;;
78871;SDS011;68247;43.514;1.502;2023-03-05T00:35:38;47.10;;;21.77;;
78871;SDS011;68247;43.514;1.502;2023-03-05T00:38:07;42.85;;;20.10;;
78871;SDS011;68247;43.514;1.502;2023-03-05T00:40:35;42.72;;;21.30;;
78871;SDS011;68247;43.514;1.502;2023-03-05T00:43:04;42.27;;;20.53;;
78871;SDS011;68247;43.514;1.502;2023-03-05T00:45:30;44.55;;;20.50;;
78871;SDS011;68247;43.514;1.502;2023-03-05T00:47:56;41.88;;;20.30;;
78871;SDS011;68247;43.514;1.502;2023-03-05T00:50:22;45.15;;;21.77;;
78871;SDS011;68247;43.514;1.502;2023-03-05T00:52:48;47.23;;;22.17;;
78871;SDS011;68247;43.514;1.502;2023-03-05T00:55:13;43.78;;;20.58;;
78871;SDS011;68247;43.514;1.502;2023-03-05T00:57:39;44.73;;;22.07;;
78871;SDS011;68247;43.514;1.502;2023-03-05T01:00:04;45.73;;;21.93;;
78871;SDS011;68247;43.514;1.502;2023-03-05T01:02:31;44.63;;;21.55;;
78871;SDS011;68247;43.514;1.502;2023-03-05T01:04:56;55.33;;;23.17;;
78871;SDS011;68247;43.514;1.502;2023-03-05T01:07:22;44.50;;;21.97;;
78871;SDS011;68247;43.514;1.502;2023-03-05T01:09:47;51.67;;;21.23;;
78871;SDS011;68247;43.514;1.502;2023-03-05T01:12:13;44.17;;;21.23;;
78871;SDS011;68247;43.514;1.502;2023-03-05T01:14:38;45.93;;;19.93;;
78871;SDS011;68247;43.514;1.502;2023-03-05T01:17:04;46.10;;;22.10;;
78871;SDS011;68247;43.514;1.502;2023-03-05T01:19:29;45.58;;;22.27;;
78871;SDS011;68247;43.514;1.502;2023-03-05T01:21:55;45.60;;;20.50;;
78871;SDS011;68247;43.514;1.502;2023-03-05T01:24:21;41.33;;;21.13;;
78871;SDS011;68247;43.514;1.502;2023-03-05T01:26:46;42.37;;;21.80;;
78871;SDS011;68247;43.514;1.502;2023-03-05T01:29:13;44.30;;;20.75;;
78871;SDS011;68247;43.514;1.502;2023-03-05T01:31:39;43.15;;;20.80;;
78871;SDS011;68247;43.514;1.502;2023-03-05T01:34:04;49.37;;;22.23;;
78871;SDS011;68247;43.514;1.502;2023-03-05T01:36:30;46.67;;;22.27;;
78871;SDS011;68247;43.514;1.502;2023-03-05T01:38:56;46.75;;;22.05;;
78871;SDS011;68247;43.514;1.502;2023-03-05T01:41:21;45.67;;;21.70;;
78871;SDS011;68247;43.514;1.502;2023-03-05T01:43:47;45.58;;;21.77;;
78871;SDS011;68247;43.514;1.502;2023-03-05T01:46:32;44.47;;;21.27;;
78871;SDS011;68247;43.514;1.502;2023-03-05T01:51:34;45.70;;;21.50;;
78871;SDS011;68247;43.514;1.502;2023-03-05T01:54:02;47.70;;;22.58;;
78871;SDS011;68247;43.514;1.502;2023-03-05T01:56:30;45.40;;;21.42;;
78871;SDS011;68247;43.514;1.502;2023-03-05T01:58:55;45.63;;;21.87;;
78871;SDS011;68247;43.514;1.502;2023-03-05T02:01:29;46.15;;;21.98;;
78871;SDS011;68247;43.514;1.502;2023-03-05T02:03:56;47.50;;;23.35;;
78871;SDS011;68247;43.514;1.502;2023-03-05T02:06:22;48.20;;;21.57;;
78871;SDS011;68247;43.514;1.502;2023-03-05T02:08:47;51.30;;;23.73;;
78871;SDS011;68247;43.514;1.502;2023-03-05T02:11:12;49.55;;;22.88;;
78871;SDS011;68247;43.514;1.502;2023-03-05T02:13:38;45.83;;;21.97;;
78871;SDS011;68247;43.514;1.502;2023-03-05T02:16:05;45.42;;;21.88;;
78871;SDS011;68247;43.514;1.502;2023-03-05T02:18:31;44.73;;;21.00;;
78871;SDS011;68247;43.514;1.502;2023-03-05T02:23:24;46.67;;;22.03;;
78871;SDS011;68247;43.514;1.502;2023-03-05T02:25:51;46.08;;;21.90;;
78871;SDS011;68247;43.514;1.502;2023-03-05T02:28:17;46.10;;;21.17;;
78871;SDS011;68247;43.514;1.502;2023-03-05T02:30:44;44.97;;;21.38;;
78871;SDS011;68247;43.514;1.502;2023-03-05T02:33:09;45.60;;;21.77;;
78871;SDS011;68247;43.514;1.502;2023-03-05T02:35:35;48.97;;;20.60;;
78871;SDS011;68247;43.514;1.502;2023-03-05T02:38:00;46.30;;;22.40;;
78871;SDS011;68247;43.514;1.502;2023-03-05T02:40:26;51.70;;;22.50;;
78871;SDS011;68247;43.514;1.502;2023-03-05T02:42:51;49.50;;;22.77;;
78871;SDS011;68247;43.514;1.502;2023-03-05T02:45:17;43.38;;;21.13;;
78871;SDS011;68247;43.514;1.502;2023-03-05T02:47:43;45.30;;;21.20;;
78871;SDS011;68247;43.514;1.502;2023-03-05T02:50:08;46.83;;;21.40;;
78871;SDS011;68247;43.514;1.502;2023-03-05T02:52:35;47.45;;;22.17;;
78871;SDS011;68247;43.514;1.502;2023-03-05T02:55:00;45.67;;;21.73;;
78871;SDS011;68247;43.514;1.502;2023-03-05T02:57:26;45.77;;;20.83;;
78871;SDS011;68247;43.514;1.502;2023-03-05T02:59:52;44.75;;;21.92;;
78871;SDS011;68247;43.514;1.502;2023-03-05T03:02:18;44.23;;;21.23;;
78871;SDS011;68247;43.514;1.502;2023-03-05T03:04:43;45.95;;;21.27;;
78871;SDS011;68247;43.514;1.502;2023-03-05T03:07:12;49.23;;;22.77;;
78871;SDS011;68247;43.514;1.502;2023-03-05T03:09:38;51.47;;;23.40;;
78871;SDS011;68247;43.514;1.502;2023-03-05T03:12:04;49.13;;;22.03;;
78871;SDS011;68247;43.514;1.502;2023-03-05T03:14:33;47.50;;;21.90;;
78871;SDS011;68247;43.514;1.502;2023-03-05T03:17:03;45.75;;;21.08;;
78871;SDS011;68247;43.514;1.502;2023-03-05T03:19:30;50.65;;;22.20;;
78871;SDS011;68247;43.514;1.502;2023-03-05T03:21:56;49.30;;;22.23;;
78871;SDS011;68247;43.514;1.502;2023-03-05T03:24:21;45.05;;;21.90;;
78871;SDS011;68247;43.514;1.502;2023-03-05T03:26:46;45.23;;;21.67;;
78871;SDS011;68247;43.514;1.502;2023-03-05T03:29:12;49.93;;;22.10;;
78871;SDS011;68247;43.514;1.502;2023-03-05T03:31:37;48.73;;;22.57;;
78871;SDS011;68247;43.514;1.502;2023-03-05T03:34:05;43.85;;;20.48;;
78871;SDS011;68247;43.514;1.502;2023-03-05T03:36:30;42.20;;;21.73;;
78871;SDS011;68247;43.514;1.502;2023-03-05T03:38:56;47.85;;;20.90;;
78871;SDS011;68247;43.514;1.502;2023-03-05T03:41:22;44.10;;;21.67;;
78871;SDS011;68247;43.514;1.502;2023-03-05T03:43:47;48.90;;;21.70;;
78871;SDS011;68247;43.514;1.502;2023-03-05T03:46:12;46.50;;;21.63;;
78871;SDS011;68247;43.514;1.502;2023-03-05T03:48:38;45.70;;;21.37;;
78871;SDS011;68247;43.514;1.502;2023-03-05T03:51:04;44.47;;;20.87;;
78871;SDS011;68247;43.514;1.502;2023-03-05T03:53:31;50.72;;;22.05;;
78871;SDS011;68247;43.514;1.502;2023-03-05T03:55:57;46.33;;;21.73;;
78871;SDS011;68247;43.514;1.502;2023-03-05T03:58:24;44.05;;;21.40;;
78871;SDS011;68247;43.514;1.502;2023-03-05T04:00:50;51.83;;;22.52;;
78871;SDS011;68247;43.514;1.502;2023-03-05T04:03:15;48.73;;;22.60;;
78871;SDS011;68247;43.514;1.502;2023-03-05T04:05:41;46.23;;;21.60;;
78871;SDS011;68247;43.514;1.502;2023-03-05T04:08:06;45.63;;;21.67;;
78871;SDS011;68247;43.514;1.502;2023-03-05T04:10:36;49.40;;;22.45;;
78871;SDS011;68247;43.514;1.502;2023-03-05T04:13:03;46.70;;;21.25;;
78871;SDS011;68247;43.514;1.502;2023-03-05T04:15:29;44.40;;;21.47;;
78871;SDS011;68247;43.514;1.502;2023-03-05T04:17:54;48.83;;;21.73;;
78871;SDS011;68247;43.514;1.502;2023-03-05T04:20:20;45.47;;;20.80;;
78871;SDS011;68247;43.514;1.502;2023-03-05T04:22:45;48.67;;;21.63;;
78871;SDS011;68247;43.514;1.502;2023-03-05T04:25:10;49.83;;;22.73;;
78871;SDS011;68247;43.514;1.502;2023-03-05T04:27:36;48.40;;;22.40;;
78871;SDS011;68247;43.514;1.502;2023-03-05T04:30:02;46.07;;;22.13;;
78871;SDS011;68247;43.514;1.502;2023-03-05T04:32:28;46.75;;;21.70;;
78871;SDS011;68247;43.514;1.502;2023-03-05T04:34:57;49.37;;;21.67;;
78871;SDS011;68247;43.514;1.502;2023-03-05T04:37:23;46.85;;;21.50;;
78871;SDS011;68247;43.514;1.502;2023-03-05T04:39:49;48.97;;;21.58;;
78871;SDS011;68247;43.514;1.502;2023-03-05T04:42:15;48.00;;;22.05;;
78871;SDS011;68247;43.514;1.502;2023-03-05T04:44:42;47.97;;;22.90;;
78871;SDS011;68247;43.514;1.502;2023-03-05T04:47:07;46.15;;;21.98;;
78871;SDS011;68247;43.514;1.502;2023-03-05T04:49:33;50.50;;;23.97;;
78871;SDS011;68247;43.514;1.502;2023-03-05T04:51:58;49.93;;;22.47;;
78871;SDS011;68247;43.514;1.502;2023-03-05T04:54:23;46.43;;;21.20;;
78871;SDS011;68247;43.514;1.502;2023-03-05T04:56:49;44.80;;;21.13;;
78871;SDS011;68247;43.514;1.502;2023-03-05T04:59:14;51.93;;;23.10;;
78871;SDS011;68247;43.514;1.502;2023-03-05T05:01:40;50.93;;;22.60;;
78871;SDS011;68247;43.514;1.502;2023-03-05T05:04:05;53.03;;;23.37;;
78871;SDS011;68247;43.514;1.502;2023-03-05T05:06:31;46.78;;;21.80;;
78871;SDS011;68247;43.514;1.502;2023-03-05T05:08:57;44.10;;;21.50;;
78871;SDS011;68247;43.514;1.502;2023-03-05T05:11:22;45.60;;;21.83;;
78871;SDS011;68247;43.514;1.502;2023-03-05T05:13:48;53.63;;;22.80;;
78871;SDS011;68247;43.514;1.502;2023-03-05T05:16:13;46.83;;;21.23;;
78871;SDS011;68247;43.514;1.502;2023-03-05T05:18:40;52.05;;;22.13;;
78871;SDS011;68247;43.514;1.502;2023-03-05T05:21:06;48.13;;;21.95;;
78871;SDS011;68247;43.514;1.502;2023-03-05T05:23:33;50.50;;;22.53;;
78871;SDS011;68247;43.514;1.502;2023-03-05T05:25:59;51.50;;;22.35;;
78871;SDS011;68247;43.514;1.502;2023-03-05T05:28:26;47.58;;;21.45;;
78871;SDS011;68247;43.514;1.502;2023-03-05T05:30:52;50.50;;;21.20;;
78871;SDS011;68247;43.514;1.502;2023-03-05T05:33:18;51.08;;;22.77;;
78871;SDS011;68247;43.514;1.502;2023-03-05T05:35:43;51.78;;;22.15;;
78871;SDS011;68247;43.514;1.502;2023-03-05T05:38:09;49.00;;;22.53;;
78871;SDS011;68247;43.514;1.502;2023-03-05T05:40:34;44.50;;;21.87;;
78871;SDS011;68247;43.514;1.502;2023-03-05T05:43:00;50.33;;;22.23;;
78871;SDS011;68247;43.514;1.502;2023-03-05T05:45:25;48.67;;;21.60;;
78871;SDS011;68247;43.514;1.502;2023-03-05T05:47:51;48.77;;;21.77;;
78871;SDS011;68247;43.514;1.502;2023-03-05T05:50:17;49.33;;;21.77;;
78871;SDS011;68247;43.514;1.502;2023-03-05T05:52:44;52.38;;;23.70;;
78871;SDS011;68247;43.514;1.502;2023-03-05T05:55:09;52.77;;;23.90;;
78871;SDS011;68247;43.514;1.502;2023-03-05T05:57:35;47.03;;;22.35;;
78871;SDS011;68247;43.514;1.502;2023-03-05T06:00:01;49.77;;;21.27;;
78871;SDS011;68247;43.514;1.502;2023-03-05T06:02:27;51.30;;;22.90;;
78871;SDS011;68247;43.514;1.502;2023-03-05T06:04:53;50.07;;;21.60;;
78871;SDS011;68247;43.514;1.502;2023-03-05T06:07:18;51.30;;;22.08;;
78871;SDS011;68247;43.514;1.502;2023-03-05T06:09:43;50.60;;;22.13;;
78871;SDS011;68247;43.514;1.502;2023-03-05T06:12:09;52.93;;;23.23;;
78871;SDS011;68247;43.514;1.502;2023-03-05T06:14:35;48.38;;;22.40;;
78871;SDS011;68247;43.514;1.502;2023-03-05T06:17:00;53.20;;;23.77;;
78871;SDS011;68247;43.514;1.502;2023-03-05T06:19:26;47.13;;;22.60;;
78871;SDS011;68247;43.514;1.502;2023-03-05T06:21:51;51.20;;;22.57;;
78871;SDS011;68247;43.514;1.502;2023-03-05T06:24:17;53.57;;;21.47;;
78871;SDS011;68247;43.514;1.502;2023-03-05T06:26:43;50.78;;;22.60;;
78871;SDS011;68247;43.514;1.502;2023-03-05T06:29:10;53.22;;;22.75;;
78871;SDS011;68247;43.514;1.502;2023-03-05T06:31:36;53.00;;;22.90;;
78871;SDS011;68247;43.514;1.502;2023-03-05T06:34:03;49.92;;;23.98;;
78871;SDS011;68247;43.514;1.502;2023-03-05T06:36:28;49.07;;;22.60;;
78871;SDS011;68247;43.514;1.502;2023-03-05T06:38:54;49.25;;;22.05;;
78871;SDS011;68247;43.514;1.502;2023-03-05T06:41:22;47.60;;;21.70;;
78871;SDS011;68247;43.514;1.502;2023-03-05T06:43:49;49.28;;;22.23;;
78871;SDS011;68247;43.514;1.502;2023-03-05T06:46:16;51.07;;;21.30;;
78871;SDS011;68247;43.514;1.502;2023-03-05T06:48:42;45.63;;;20.40;;
78871;SDS011;68247;43.514;1.502;2023-03-05T06:51:15;47.38;;;23.13;;
78871;SDS011;68247;43.514;1.502;2023-03-05T06:53:44;50.47;;;23.25;;
78871;SDS011;68247;43.514;1.502;2023-03-05T06:56:10;51.53;;;23.33;;
78871;SDS011;68247;43.514;1.502;2023-03-05T06:58:38;52.38;;;23.02;;
78871;SDS011;68247;43.514;1.502;2023-03-05T07:01:05;53.17;;;24.30;;
78871;SDS011;68247;43.514;1.502;2023-03-05T07:03:31;52.42;;;23.85;;
78871;SDS011;68247;43.514;1.502;2023-03-05T07:05:57;54.07;;;24.60;;
78871;SDS011;68247;43.514;1.502;2023-03-05T07:08:22;60.85;;;27.88;;
78871;SDS011;68247;43.514;1.502;2023-03-05T07:10:48;62.83;;;29.37;;
78871;SDS011;68247;43.514;1.502;2023-03-05T07:13:13;56.60;;;28.83;;
78871;SDS011;68247;43.514;1.502;2023-03-05T07:15:39;65.07;;;29.20;;
78871;SDS011;68247;43.514;1.502;2023-03-05T07:18:05;64.47;;;29.33;;
78871;SDS011;68247;43.514;1.502;2023-03-05T07:20:34;56.05;;;26.17;;
78871;SDS011;68247;43.514;1.502;2023-03-05T07:23:00;61.45;;;27.52;;
78871;SDS011;68247;43.514;1.502;2023-03-05T07:25:26;54.00;;;24.33;;
78871;SDS011;68247;43.514;1.502;2023-03-05T07:27:52;55.75;;;23.90;;
78871;SDS011;68247;43.514;1.502;2023-03-05T07:30:17;54.70;;;25.20;;
78871;SDS011;68247;43.514;1.502;2023-03-05T07:32:43;50.93;;;24.83;;
78871;SDS011;68247;43.514;1.502;2023-03-05T07:35:08;52.90;;;25.37;;
78871;SDS011;68247;43.514;1.502;2023-03-05T07:37:34;57.77;;;25.93;;
78871;SDS011;68247;43.514;1.502;2023-03-05T07:39:59;56.03;;;24.13;;
78871;SDS011;68247;43.514;1.502;2023-03-05T07:42:25;54.00;;;25.10;;
78871;SDS011;68247;43.514;1.502;2023-03-05T07:44:50;55.80;;;25.70;;
78871;SDS011;68247;43.514;1.502;2023-03-05T07:47:16;55.23;;;25.20;;
78871;SDS011;68247;43.514;1.502;2023-03-05T07:49:41;50.87;;;23.97;;
78871;SDS011;68247;43.514;1.502;2023-03-05T07:52:07;55.27;;;24.47;;
78871;SDS011;68247;43.514;1.502;2023-03-05T07:54:34;51.78;;;24.15;;
78871;SDS011;68247;43.514;1.502;2023-03-05T07:57:03;52.20;;;24.43;;
78871;SDS011;68247;43.514;1.502;2023-03-05T07:59:29;49.40;;;22.90;;
78871;SDS011;68247;43.514;1.502;2023-03-05T08:01:54;48.67;;;23.70;;
78871;SDS011;68247;43.514;1.502;2023-03-05T08:04:20;49.13;;;22.73;;
78871;SDS011;68247;43.514;1.502;2023-03-05T08:06:45;51.43;;;23.53;;
78871;SDS011;68247;43.514;1.502;2023-03-05T08:09:11;50.67;;;23.53;;
78871;SDS011;68247;43.514;1.502;2023-03-05T08:11:38;53.08;;;23.48;;
78871;SDS011;68247;43.514;1.502;2023-03-05T08:14:04;49.13;;;24.60;;
78871;SDS011;68247;43.514;1.502;2023-03-05T08:16:29;51.63;;;25.07;;
78871;SDS011;68247;43.514;1.502;2023-03-05T08:18:56;50.90;;;24.65;;
78871;SDS011;68247;43.514;1.502;2023-03-05T08:21:29;53.97;;;24.20;;
78871;SDS011;68247;43.514;1.502;2023-03-05T08:23:58;47.38;;;22.52;;
78871;SDS011;68247;43.514;1.502;2023-03-05T08:26:25;50.63;;;24.75;;
78871;SDS011;68247;43.514;1.502;2023-03-05T08:28:52;47.97;;;22.70;;
78871;SDS011;68247;43.514;1.502;2023-03-05T08:31:18;51.33;;;23.07;;
78871;SDS011;68247;43.514;1.502;2023-03-05T08:33:46;49.22;;;23.52;;
78871;SDS011;68247;43.514;1.502;2023-03-05T08:36:12;48.67;;;23.17;;
78871;SDS011;68247;43.514;1.502;2023-03-05T08:38:38;47.77;;;22.80;;
78871;SDS011;68247;43.514;1.502;2023-03-05T08:41:03;50.47;;;23.70;;
78871;SDS011;68247;43.514;1.502;2023-03-05T08:43:29;48.38;;;22.38;;
78871;SDS011;68247;43.514;1.502;2023-03-05T08:45:55;47.45;;;22.90;;
78871;SDS011;68247;43.514;1.502;2023-03-05T08:48:21;52.43;;;23.70;;
78871;SDS011;68247;43.514;1.502;2023-03-05T08:50:46;48.97;;;23.42;;
78871;SDS011;68247;43.514;1.502;2023-03-05T08:53:13;44.97;;;21.88;;
78871;SDS011;68247;43.514;1.502;2023-03-05T08:55:39;46.80;;;24.70;;
78871;SDS011;68247;43.514;1.502;2023-03-05T08:58:04;47.65;;;23.55;;
78871;SDS011;68247;43.514;1.502;2023-03-05T09:00:29;45.70;;;21.87;;
78871;SDS011;68247;43.514;1.502;2023-03-05T09:02:55;43.10;;;21.57;;
78871;SDS011;68247;43.514;1.502;2023-03-05T09:05:21;43.55;;;20.90;;
78871;SDS011;68247;43.514;1.502;2023-03-05T09:07:47;40.63;;;18.93;;
78871;SDS011;68247;43.514;1.502;2023-03-05T09:10:12;41.38;;;20.58;;
78871;SDS011;68247;43.514;1.502;2023-03-05T09:12:39;38.83;;;20.05;;
78871;SDS011;68247;43.514;1.502;2023-03-05T09:15:05;43.10;;;20.53;;
78871;SDS011;68247;43.514;1.502;2023-03-05T09:17:32;37.92;;;18.95;;
78871;SDS011;68247;43.514;1.502;2023-03-05T09:20:02;39.28;;;19.75;;
78871;SDS011;68247;43.514;1.502;2023-03-05T09:22:29;39.55;;;19.17;;
78871;SDS011;68247;43.514;1.502;2023-03-05T09:24:54;37.33;;;19.30;;
78871;SDS011;68247;43.514;1.502;2023-03-05T09:27:20;41.00;;;19.93;;
78871;SDS011;68247;43.514;1.502;2023-03-05T09:29:45;41.47;;;20.80;;
78871;SDS011;68247;43.514;1.502;2023-03-05T09:32:11;41.30;;;20.27;;
78871;SDS011;68247;43.514;1.502;2023-03-05T09:34:36;40.17;;;18.40;;
78871;SDS011;68247;43.514;1.502;2023-03-05T09:37:02;39.67;;;19.77;;
78871;SDS011;68247;43.514;1.502;2023-03-05T09:39:28;37.35;;;20.10;;
78871;SDS011;68247;43.514;1.502;2023-03-05T09:52:20;41.13;;;20.27;;
78871;SDS011;68247;43.514;1.502;2023-03-05T09:54:49;38.75;;;19.15;;
78871;SDS011;68247;43.514;1.502;2023-03-05T09:57:18;39.53;;;19.50;;
78871;SDS011;68247;43.514;1.502;2023-03-05T10:02:46;34.97;;;17.97;;
78871;SDS011;68247;43.514;1.502;2023-03-05T10:05:12;38.28;;;19.45;;
78871;SDS011;68247;43.514;1.502;2023-03-05T10:07:44;41.75;;;20.90;;
78871;SDS011;68247;43.514;1.502;2023-03-05T10:10:19;38.95;;;19.73;;
78871;SDS011;68247;43.514;1.502;2023-03-05T10:12:52;37.17;;;18.93;;
78871;SDS011;68247;43.514;1.502;2023-03-05T10:23:46;36.53;;;18.92;;
78871;SDS011;68247;43.514;1.502;2023-03-05T10:26:38;35.73;;;18.37;;
78871;SDS011;68247;43.514;1.502;2023-03-05T10:44:59;35.10;;;19.00;;
78871;SDS011;68247;43.514;1.502;2023-03-05T10:52:51;36.65;;;19.00;;
78871;SDS011;68247;43.514;1.502;2023-03-05T10:55:39;35.17;;;19.05;;
78871;SDS011;68247;43.514;1.502;2023-03-05T10:58:14;36.87;;;18.53;;
78871;SDS011;68247;43.514;1.502;2023-03-05T11:06:29;37.20;;;19.63;;
78871;SDS011;68247;43.514;1.502;2023-03-05T11:09:14;35.53;;;19.63;;
78871;SDS011;68247;43.514;1.502;2023-03-05T11:12:01;34.63;;;18.70;;
78871;SDS011;68247;43.514;1.502;2023-03-05T11:14:45;33.13;;;18.80;;
78871;SDS011;68247;43.514;1.502;2023-03-05T11:17:27;36.00;;;18.20;;
78871;SDS011;68247;43.514;1.502;2023-03-05T11:20:19;36.27;;;19.73;;
78871;SDS011;68247;43.514;1.502;2023-03-05T11:23:01;36.15;;;19.75;;
78871;SDS011;68247;43.514;1.502;2023-03-05T11:25:57;34.63;;;19.15;;
78871;SDS011;68247;43.514;1.502;2023-03-05T11:28:35;34.70;;;19.83;;
78871;SDS011;68247;43.514;1.502;2023-03-05T11:31:11;37.17;;;19.90;;
78871;SDS011;68247;43.514;1.502;2023-03-05T11:41:40;34.40;;;19.63;;
78871;SDS011;68247;43.514;1.502;2023-03-05T11:46:47;33.47;;;18.65;;
78871;SDS011;68247;43.514;1.502;2023-03-05T11:49:17;31.57;;;18.57;;
78871;SDS011;68247;43.514;1.502;2023-03-05T11:54:25;32.85;;;19.65;;
78871;SDS011;68247;43.514;1.502;2023-03-05T11:56:59;33.58;;;20.20;;
78871;SDS011;68247;43.514;1.502;2023-03-05T11:59:27;32.10;;;20.23;;
78871;SDS011;68247;43.514;1.502;2023-03-05T12:01:56;33.90;;;20.70;;
78871;SDS011;68247;43.514;1.502;2023-03-05T12:04:21;35.67;;;21.02;;
78871;SDS011;68247;43.514;1.502;2023-03-05T12:06:58;33.53;;;20.80;;
78871;SDS011;68247;43.514;1.502;2023-03-05T12:09:38;34.47;;;21.77;;
78871;SDS011;68247;43.514;1.502;2023-03-05T12:23:21;32.58;;;21.08;;
78871;SDS011;68247;43.514;1.502;2023-03-05T12:25:54;28.53;;;20.83;;
78871;SDS011;68247;43.514;1.502;2023-03-05T12:31:00;28.30;;;20.23;;
78871;SDS011;68247;43.514;1.502;2023-03-05T12:33:30;29.70;;;19.92;;
78871;SDS011;68247;43.514;1.502;2023-03-05T12:38:47;28.60;;;21.20;;
78871;SDS011;68247;43.514;1.502;2023-03-05T12:49:45;31.15;;;20.95;;
78871;SDS011;68247;43.514;1.502;2023-03-05T12:51:50;25.33;;;19.73;;
78871;SDS011;68247;43.514;1.502;2023-03-05T12:54:26;26.55;;;20.50;;
78871;SDS011;68247;43.514;1.502;2023-03-05T12:57:12;27.05;;;19.83;;
78871;SDS011;68247;43.514;1.502;2023-03-05T12:59:57;26.98;;;19.52;;
78871;SDS011;68247;43.514;1.502;2023-03-05T13:02:26;26.67;;;20.38;;
78871;SDS011;68247;43.514;1.502;2023-03-05T13:04:56;26.27;;;19.63;;
78871;SDS011;68247;43.514;1.502;2023-03-05T13:07:24;26.02;;;19.38;;
78871;SDS011;68247;43.514;1.502;2023-03-05T13:09:51;27.77;;;20.13;;
78871;SDS011;68247;43.514;1.502;2023-03-05T13:12:18;25.97;;;20.30;;
78871;SDS011;68247;43.514;1.502;2023-03-05T13:14:44;25.58;;;19.98;;
78871;SDS011;68247;43.514;1.502;2023-03-05T13:17:24;28.05;;;20.20;;
78871;SDS011;68247;43.514;1.502;2023-03-05T13:20:20;26.13;;;19.45;;
78871;SDS011;68247;43.514;1.502;2023-03-05T13:28:21;23.52;;;18.38;;
78871;SDS011;68247;43.514;1.502;2023-03-05T13:30:54;23.57;;;18.50;;
78871;SDS011;68247;43.514;1.502;2023-03-05T13:33:25;26.00;;;18.80;;
78871;SDS011;68247;43.514;1.502;2023-03-05T13:35:52;22.98;;;18.20;;
78871;SDS011;68247;43.514;1.502;2023-03-05T13:38:22;22.60;;;17.80;;
78871;SDS011;68247;43.514;1.502;2023-03-05T13:41:03;23.40;;;17.77;;
78871;SDS011;68247;43.514;1.502;2023-03-05T13:43:53;24.88;;;18.45;;
78871;SDS011;68247;43.514;1.502;2023-03-05T13:48:52;24.37;;;17.10;;
78871;SDS011;68247;43.514;1.502;2023-03-05T13:51:18;26.33;;;18.13;;
78871;SDS011;68247;43.514;1.502;2023-03-05T13:53:43;21.57;;;16.93;;
78871;SDS011;68247;43.514;1.502;2023-03-05T13:56:14;22.00;;;17.45;;
78871;SDS011;68247;43.514;1.502;2023-03-05T14:03:50;22.98;;;16.83;;
78871;SDS011;68247;43.514;1.502;2023-03-05T14:06:18;23.20;;;17.63;;
78871;SDS011;68247;43.514;1.502;2023-03-05T14:08:53;23.33;;;18.52;;
78871;SDS011;68247;43.514;1.502;2023-03-05T14:11:22;21.63;;;17.65;;
78871;SDS011;68247;43.514;1.502;2023-03-05T14:13:47;23.50;;;17.50;;
78871;SDS011;68247;43.514;1.502;2023-03-05T14:16:26;22.95;;;18.27;;
78871;SDS011;68247;43.514;1.502;2023-03-05T14:18:58;24.70;;;18.48;;
78871;SDS011;68247;43.514;1.502;2023-03-05T14:21:25;23.52;;;18.17;;
78871;SDS011;68247;43.514;1.502;2023-03-05T14:24:11;21.27;;;16.10;;
78871;SDS011;68247;43.514;1.502;2023-03-05T14:26:40;23.95;;;18.02;;
78871;SDS011;68247;43.514;1.502;2023-03-05T14:29:13;23.38;;;18.20;;
78871;SDS011;68247;43.514;1.502;2023-03-05T14:31:48;22.88;;;17.88;;
78871;SDS011;68247;43.514;1.502;2023-03-05T14:34:26;26.83;;;18.70;;
78871;SDS011;68247;43.514;1.502;2023-03-05T14:36:55;24.37;;;18.23;;
78871;SDS011;68247;43.514;1.502;2023-03-05T14:39:39;23.13;;;18.77;;
78871;SDS011;68247;43.514;1.502;2023-03-05T14:42:25;24.38;;;17.85;;
78871;SDS011;68247;43.514;1.502;2023-03-05T14:44:53;24.73;;;17.95;;
78871;SDS011;68247;43.514;1.502;2023-03-05T14:47:20;23.23;;;17.75;;
78871;SDS011;68247;43.514;1.502;2023-03-05T14:49:46;21.43;;;17.30;;
78871;SDS011;68247;43.514;1.502;2023-03-05T14:52:20;24.02;;;18.52;;
78871;SDS011;68247;43.514;1.502;2023-03-05T14:54:47;22.45;;;17.48;;
78871;SDS011;68247;43.514;1.502;2023-03-05T14:57:16;23.63;;;17.13;;
78871;SDS011;68247;43.514;1.502;2023-03-05T14:59:44;22.92;;;17.63;;
78871;SDS011;68247;43.514;1.502;2023-03-05T15:02:19;23.17;;;17.70;;
78871;SDS011;68247;43.514;1.502;2023-03-05T15:04:46;23.10;;;18.25;;
78871;SDS011;68247;43.514;1.502;2023-03-05T15:07:13;24.63;;;18.50;;
78871;SDS011;68247;43.514;1.502;2023-03-05T15:09:42;22.75;;;18.13;;
78871;SDS011;68247;43.514;1.502;2023-03-05T15:12:09;24.70;;;17.93;;
78871;SDS011;68247;43.514;1.502;2023-03-05T15:14:36;24.50;;;18.13;;
78871;SDS011;68247;43.514;1.502;2023-03-05T15:17:02;22.45;;;18.08;;
78871;SDS011;68247;43.514;1.502;2023-03-05T15:19:27;25.27;;;17.70;;
78871;SDS011;68247;43.514;1.502;2023-03-05T15:21:52;21.80;;;16.63;;
78871;SDS011;68247;43.514;1.502;2023-03-05T15:24:18;21.58;;;16.20;;
78871;SDS011;68247;43.514;1.502;2023-03-05T15:26:43;23.40;;;16.80;;
78871;SDS011;68247;43.514;1.502;2023-03-05T15:29:09;23.97;;;17.57;;
78871;SDS011;68247;43.514;1.502;2023-03-05T15:31:34;22.50;;;16.97;;
78871;SDS011;68247;43.514;1.502;2023-03-05T15:34:02;22.80;;;17.35;;
78871;SDS011;68247;43.514;1.502;2023-03-05T15:36:29;26.15;;;17.50;;
78871;SDS011;68247;43.514;1.502;2023-03-05T15:38:54;29.33;;;21.50;;
78871;SDS011;68247;43.514;1.502;2023-03-05T15:41:20;25.53;;;18.80;;
78871;SDS011;68247;43.514;1.502;2023-03-05T15:43:46;27.05;;;19.02;;
78871;SDS011;68247;43.514;1.502;2023-03-05T15:46:12;21.55;;;16.75;;
78871;SDS011;68247;43.514;1.502;2023-03-05T15:48:37;27.80;;;17.30;;
78871;SDS011;68247;43.514;1.502;2023-03-05T15:51:06;24.77;;;17.77;;
78871;SDS011;68247;43.514;1.502;2023-03-05T15:53:31;24.65;;;16.90;;
78871;SDS011;68247;43.514;1.502;2023-03-05T15:55:57;24.33;;;16.77;;
78871;SDS011;68247;43.514;1.502;2023-03-05T15:58:22;27.00;;;16.92;;
78871;SDS011;68247;43.514;1.502;2023-03-05T16:00:48;27.23;;;17.40;;
78871;SDS011;68247;43.514;1.502;2023-03-05T16:03:13;26.73;;;17.53;;
78871;SDS011;68247;43.514;1.502;2023-03-05T16:05:39;23.77;;;15.85;;
78871;SDS011;68247;43.514;1.502;2023-03-05T16:08:05;23.77;;;15.60;;
78871;SDS011;68247;43.514;1.502;2023-03-05T16:10:31;23.65;;;15.05;;